YTIN weather

Tintinara Airport
South Australia, Australia

Public forecast

Using degrees Celsius for public forecast. Weather courtesy of forecast.io.

METAR (pilot weather report)

Closest report is Adelaide International Airport, 93.3 nm (172.9 km) NW. Retrieved 2019/03/23 16:00 UTC (13 minutes ago):

YPAD 231600Z 20005KT 9999 FEW018 BKN030 20/16 Q1011 FM1700 VRB05KT 9999 BKN020

TAF (pilot weather forecast)

Closest forecast is Adelaide International Airport, 93.3 nm (172.9 km) NW. Retrieved 2019/03/23 12:37 UTC (4 hours ago):

TAF YPAD 231104Z 2312/2418 VRB05KT 9999 SCT020 FM232200 36008KT 9999 BKN030 FM240100 32014KT 9999 BKN040 FM240400 29016G28KT 9999 -SHRA BKN025 FM240900 27022G35KT 9999 -SHRA BKN025 FM241600 25018G30KT 9999 -SHRA SCT040